createdAt,value
2018-12-05T00:01:09.062Z,100444.36
2018-12-05T00:03:46.908Z,100445.28
2018-12-05T00:06:17.981Z,100447.85
2018-12-05T00:08:51.344Z,100448.75
2018-12-05T00:11:22.553Z,100449.20
2018-12-05T00:13:53.588Z,100447.85
2018-12-05T00:16:24.661Z,100452.64
2018-12-05T00:18:55.703Z,100452.05
2018-12-05T00:21:26.773Z,100442.50
2018-12-05T00:23:57.824Z,100439.05
2018-12-05T00:26:28.903Z,100433.37
2018-12-05T00:28:59.837Z,100446.82
2018-12-05T00:31:30.893Z,100455.06
2018-12-05T00:34:01.936Z,100454.32
2018-12-05T00:36:33.001Z,100447.42
2018-12-05T00:39:05.826Z,100449.98
2018-12-05T00:41:38.573Z,100453.91
2018-12-05T00:44:09.524Z,100458.08
2018-12-05T00:46:40.492Z,100459.65
2018-12-05T00:49:11.613Z,100458.95
2018-12-05T00:51:42.743Z,100454.49
2018-12-05T00:54:13.795Z,100462.11
2018-12-05T00:56:44.873Z,100463.27
2018-12-05T00:59:16.095Z,100471.47
2018-12-05T01:01:47.151Z,100468.45
2018-12-05T01:04:18.320Z,100468.62
2018-12-05T01:06:49.401Z,100459.78
2018-12-05T01:09:20.508Z,100453.30
2018-12-05T01:11:51.612Z,100452.30
2018-12-05T01:14:22.702Z,100440.36
2018-12-05T01:16:53.792Z,100434.25
2018-12-05T01:19:24.860Z,100430.95
2018-12-05T01:21:56.029Z,100423.94
2018-12-05T01:24:27.138Z,100412.02
2018-12-05T01:27:03.398Z,100418.89
2018-12-05T01:29:39.697Z,100421.98
2018-12-05T01:32:16.015Z,100417.54
2018-12-05T01:34:52.328Z,100412.51
2018-12-05T01:37:28.557Z,100409.73
2018-12-05T01:40:05.239Z,100415.52
2018-12-05T01:42:41.697Z,100420.60
2018-12-05T01:45:17.980Z,100426.23
2018-12-05T01:47:54.240Z,100430.84
2018-12-05T01:50:30.401Z,100430.92
2018-12-05T01:53:06.618Z,100442.77
2018-12-05T01:55:37.621Z,100439.20
2018-12-05T01:58:08.780Z,100436.37
2018-12-05T02:00:39.728Z,100432.98
2018-12-05T02:03:10.820Z,100429.05
2018-12-05T02:05:42.233Z,100425.39
2018-12-05T02:08:13.312Z,100431.11
2018-12-05T02:10:44.494Z,100431.42
2018-12-05T02:13:15.601Z,100424.13
2018-12-05T02:15:46.693Z,100417.43
2018-12-05T02:18:17.690Z,100420.84
2018-12-05T02:20:48.768Z,100413.28
2018-12-05T02:23:19.866Z,100417.83
2018-12-05T02:25:50.980Z,100413.34
2018-12-05T02:28:22.094Z,100413.84
2018-12-05T02:30:53.174Z,100409.95
2018-12-05T02:33:24.187Z,100411.61
2018-12-05T02:35:55.252Z,100410.00
2018-12-05T02:38:26.381Z,100407.06
2018-12-05T02:40:57.321Z,100403.04
2018-12-05T02:43:28.431Z,100399.78
2018-12-05T02:45:59.452Z,100395.88
2018-12-05T02:48:30.533Z,100386.98
2018-12-05T02:51:01.565Z,100390.63
2018-12-05T02:53:33.009Z,100398.23
2018-12-05T02:56:04.081Z,100402.95
2018-12-05T02:58:35.194Z,100407.98
2018-12-05T03:01:06.262Z,100401.91
2018-12-05T03:03:37.434Z,100403.91
2018-12-05T03:06:08.523Z,100401.77
2018-12-05T03:08:39.712Z,100402.71
2018-12-05T03:11:10.802Z,100399.41
2018-12-05T03:13:41.961Z,100392.51
2018-12-05T03:16:13.037Z,100396.61
2018-12-05T03:18:44.224Z,100398.53
2018-12-05T03:21:15.196Z,100400.50
2018-12-05T03:23:46.309Z,100400.52
2018-12-05T03:26:17.273Z,100399.20
2018-12-05T03:28:48.392Z,100392.64
2018-12-05T03:31:19.469Z,100385.48
2018-12-05T03:33:51.546Z,100389.95
2018-12-05T03:36:22.628Z,100381.80
2018-12-05T03:38:53.732Z,100375.12
2018-12-05T03:41:24.855Z,100365.33
2018-12-05T03:43:56.052Z,100368.51
2018-12-05T03:46:27.125Z,100362.87
2018-12-05T03:48:58.237Z,100362.40
2018-12-05T03:51:29.297Z,100359.47
2018-12-05T03:54:00.399Z,100356.16
2018-12-05T03:56:31.372Z,100356.73
2018-12-05T03:59:02.388Z,100357.80
2018-12-05T04:01:33.586Z,100360.18
2018-12-05T04:04:04.681Z,100352.09
2018-12-05T04:06:35.781Z,100357.64
2018-12-05T04:09:07.904Z,100359.07
2018-12-05T04:11:38.890Z,100359.70
2018-12-05T04:14:10.061Z,100351.48
2018-12-05T04:16:41.132Z,100359.27
2018-12-05T04:19:12.254Z,100354.12
2018-12-05T04:21:43.353Z,100362.11
2018-12-05T04:24:14.452Z,100366.73
2018-12-05T04:26:45.634Z,100364.70
2018-12-05T04:29:16.736Z,100367.31
2018-12-05T04:31:48.102Z,100366.36
2018-12-05T04:34:19.212Z,100365.73
2018-12-05T04:36:50.181Z,100362.72
2018-12-05T04:39:21.300Z,100367.47
2018-12-05T04:41:52.740Z,100370.97
2018-12-05T04:44:23.745Z,100377.73
2018-12-05T04:46:54.832Z,100362.95
2018-12-05T04:49:25.924Z,100357.84
2018-12-05T04:51:57.111Z,100360.55
2018-12-05T04:54:28.196Z,100361.98
2018-12-05T04:56:59.264Z,100365.67
2018-12-05T04:59:30.372Z,100363.69
2018-12-05T05:02:01.364Z,100360.36
2018-12-05T05:04:32.481Z,100365.28
2018-12-05T05:07:03.664Z,100368.77
2018-12-05T05:09:34.745Z,100373.48
2018-12-05T05:12:06.609Z,100371.17
2018-12-05T05:14:37.564Z,100374.14
2018-12-05T05:17:08.605Z,100371.15
2018-12-05T05:19:39.677Z,100373.64
2018-12-05T05:22:10.731Z,100376.44
2018-12-05T05:24:41.799Z,100376.75
2018-12-05T05:27:12.843Z,100377.47
2018-12-05T05:29:43.929Z,100373.93
2018-12-05T05:32:14.986Z,100375.09
2018-12-05T05:34:46.049Z,100377.73
2018-12-05T05:37:17.082Z,100381.47
2018-12-05T05:39:49.997Z,100385.91
2018-12-05T05:42:21.041Z,100389.77
2018-12-05T05:44:52.109Z,100396.03
2018-12-05T05:47:23.173Z,100391.48
2018-12-05T05:49:54.252Z,100391.00
2018-12-05T05:52:25.171Z,100390.11
2018-12-05T05:54:56.245Z,100384.82
2018-12-05T05:57:27.372Z,100380.78
2018-12-05T05:59:58.537Z,100378.80
2018-12-05T06:02:29.460Z,100381.78
2018-12-05T06:05:00.529Z,100387.97
2018-12-05T06:07:31.491Z,100377.42
2018-12-05T06:10:02.612Z,100378.11
2018-12-05T06:12:33.675Z,100371.68
2018-12-05T06:15:05.878Z,100383.70
2018-12-05T06:17:36.965Z,100378.08
2018-12-05T06:20:08.125Z,100377.14
2018-12-05T06:22:39.210Z,100382.13
2018-12-05T06:25:10.209Z,100387.41
2018-12-05T06:27:41.296Z,100380.82
2018-12-05T06:30:12.297Z,100391.94
2018-12-05T06:32:43.370Z,100385.08
2018-12-05T06:35:14.489Z,100380.90
2018-12-05T06:37:45.562Z,100380.45
2018-12-05T06:40:23.136Z,100384.18
2018-12-05T06:42:54.222Z,100386.61
2018-12-05T06:45:25.407Z,100385.47
2018-12-05T06:47:56.585Z,100375.48
2018-12-05T06:50:28.768Z,100367.38
2018-12-05T06:52:59.826Z,100368.41
2018-12-05T06:55:30.835Z,100360.60
2018-12-05T06:58:01.805Z,100361.48
2018-12-05T07:00:32.917Z,100351.31
2018-12-05T07:03:04.018Z,100358.56
2018-12-05T07:05:35.141Z,100356.05
2018-12-05T07:08:06.217Z,100372.77
2018-12-05T07:10:37.341Z,100372.05
2018-12-05T07:13:08.444Z,100373.59
2018-12-05T07:15:40.421Z,100376.84
2018-12-05T07:18:11.593Z,100375.61
2018-12-05T07:20:42.742Z,100368.55
2018-12-05T07:23:13.827Z,100369.70
2018-12-05T07:25:44.856Z,100367.96
2018-12-05T07:28:15.830Z,100371.75
2018-12-05T07:30:46.941Z,100375.80
2018-12-05T07:33:18.120Z,100379.69
2018-12-05T07:35:49.335Z,100382.48
2018-12-05T07:38:20.391Z,100389.16
2018-12-05T07:40:51.495Z,100398.05
2018-12-05T07:43:22.577Z,100399.06
2018-12-05T07:45:53.565Z,100390.45
2018-12-05T07:48:24.668Z,100396.77
2018-12-05T07:50:55.857Z,100403.25
2018-12-05T07:53:26.952Z,100400.44
2018-12-05T07:55:58.063Z,100400.30
2018-12-05T07:58:29.144Z,100401.91
2018-12-05T08:01:00.248Z,100390.91
2018-12-05T08:03:31.336Z,100393.92
2018-12-05T08:06:02.455Z,100393.68
2018-12-05T08:08:33.537Z,100396.77
2018-12-05T08:11:04.647Z,100385.25
2018-12-05T08:13:35.660Z,100395.41
2018-12-05T08:16:06.734Z,100392.39
2018-12-05T08:18:37.854Z,100376.77
2018-12-05T08:21:08.949Z,100371.35
2018-12-05T08:23:39.901Z,100374.34
2018-12-05T08:26:11.007Z,100376.19
2018-12-05T08:28:42.119Z,100376.13
2018-12-05T08:31:13.276Z,100373.58
2018-12-05T08:33:44.338Z,100384.27
2018-12-05T08:36:15.428Z,100385.66
2018-12-05T08:38:46.505Z,100387.38
2018-12-05T08:41:17.505Z,100389.86
2018-12-05T08:43:48.573Z,100389.19
2018-12-05T08:46:19.568Z,100389.98
2018-12-05T08:48:52.061Z,100396.65
2018-12-05T08:51:23.400Z,100400.66
2018-12-05T08:53:54.651Z,100401.98
2018-12-05T08:56:25.756Z,100398.56
2018-12-05T08:58:56.805Z,100402.84
2018-12-05T09:01:27.908Z,100399.19
2018-12-05T09:03:58.957Z,100403.77
2018-12-05T09:06:30.121Z,100405.05
2018-12-05T09:09:01.132Z,100396.97
2018-12-05T09:11:34.220Z,100397.25
2018-12-05T09:14:05.300Z,100397.58
2018-12-05T09:16:36.479Z,100396.24
2018-12-05T09:19:14.251Z,100392.87
2018-12-05T09:21:45.381Z,100396.54
2018-12-05T09:24:16.357Z,100389.48
2018-12-05T09:26:47.533Z,100392.00
2018-12-05T09:29:18.511Z,100395.77
2018-12-05T09:31:49.613Z,100397.11
2018-12-05T09:34:21.412Z,100397.24
2018-12-05T09:36:52.527Z,100394.23
2018-12-05T09:39:23.578Z,100384.35
2018-12-05T09:41:54.749Z,100373.72
2018-12-05T09:44:25.824Z,100371.73
2018-12-05T09:46:56.926Z,100371.61
2018-12-05T09:49:28.056Z,100372.34
2018-12-05T09:51:59.136Z,100375.73
2018-12-05T09:54:30.212Z,100371.95
2018-12-05T09:57:01.292Z,100365.34
2018-12-05T09:59:32.369Z,100367.19
2018-12-05T10:02:03.553Z,100362.91
2018-12-05T10:04:34.700Z,100352.33
2018-12-05T10:07:05.702Z,100346.21
2018-12-05T10:09:36.824Z,100340.60
2018-12-05T10:12:08.044Z,100333.22
2018-12-05T10:14:39.129Z,100331.46
2018-12-05T10:17:10.350Z,100326.08
2018-12-05T10:19:41.338Z,100324.72
2018-12-05T10:22:12.504Z,100327.70
2018-12-05T10:24:43.661Z,100331.05
2018-12-05T10:27:14.773Z,100328.68
2018-12-05T10:29:45.867Z,100319.05
2018-12-05T10:32:16.872Z,100321.67
2018-12-05T10:34:48.012Z,100318.80
2018-12-05T10:37:19.129Z,100313.39
2018-12-05T10:39:50.640Z,100304.02
2018-12-05T10:42:21.753Z,100299.44
2018-12-05T10:44:52.850Z,100297.66
2018-12-05T10:47:24.066Z,100299.97
2018-12-05T10:49:55.162Z,100298.95
2018-12-05T10:52:34.008Z,100293.64
2018-12-05T10:55:05.620Z,100290.70
2018-12-05T10:57:41.915Z,100290.63
2018-12-05T11:00:24.713Z,100288.78
2018-12-05T11:03:06.344Z,100285.91
2018-12-05T11:05:47.626Z,100277.98
2018-12-05T11:08:22.252Z,100269.84
2018-12-05T11:10:58.727Z,100265.77
2018-12-05T11:13:34.940Z,100268.00
2018-12-05T11:16:17.072Z,100273.91
2018-12-05T11:18:53.276Z,100271.94
2018-12-05T11:21:29.672Z,100271.86
2018-12-05T11:24:04.853Z,100271.28
2018-12-05T11:26:38.125Z,100262.45
2018-12-05T11:29:09.288Z,100259.17
2018-12-05T11:31:40.388Z,100264.67
2018-12-05T11:34:11.500Z,100262.12
2018-12-05T11:36:42.588Z,100260.86
2018-12-05T11:39:13.691Z,100257.20
2018-12-05T11:41:44.680Z,100251.81
2018-12-05T11:44:15.802Z,100250.02
2018-12-05T11:46:48.508Z,100239.64
2018-12-05T11:49:19.896Z,100232.78
2018-12-05T11:51:50.864Z,100232.24
2018-12-05T11:54:21.984Z,100233.19
2018-12-05T11:56:53.155Z,100228.66
2018-12-05T11:59:24.261Z,100218.06
2018-12-05T12:01:55.467Z,100214.55
2018-12-05T12:04:26.676Z,100208.73
2018-12-05T12:06:57.769Z,100202.97
2018-12-05T12:09:28.914Z,100196.89
2018-12-05T12:11:59.930Z,100188.33
2018-12-05T12:14:31.061Z,100179.15
2018-12-05T12:17:02.140Z,100183.17
2018-12-05T12:19:33.276Z,100175.27
2018-12-05T12:22:04.362Z,100176.86
2018-12-05T12:24:35.547Z,100169.91
2018-12-05T12:27:06.748Z,100162.98
2018-12-05T12:29:37.884Z,100164.62
2018-12-05T12:32:09.001Z,100161.20
2018-12-05T12:34:40.051Z,100166.29
2018-12-05T12:37:11.148Z,100158.86
2018-12-05T12:39:42.268Z,100161.59
2018-12-05T12:42:13.384Z,100160.30
2018-12-05T12:44:44.501Z,100159.88
2018-12-05T12:47:15.600Z,100155.56
2018-12-05T12:49:46.712Z,100146.45
2018-12-05T12:52:17.811Z,100148.44
2018-12-05T12:54:48.980Z,100138.41
2018-12-05T12:57:20.065Z,100128.98
2018-12-05T12:59:51.186Z,100121.04
2018-12-05T13:02:23.671Z,100118.98
2018-12-05T13:04:54.919Z,100120.52
2018-12-05T13:07:26.026Z,100121.05
2018-12-05T13:09:57.168Z,100124.63
2018-12-05T13:12:35.308Z,100122.79
2018-12-05T13:15:06.459Z,100119.01
2018-12-05T13:17:37.547Z,100114.72
2018-12-05T13:20:08.873Z,100105.67
2018-12-05T13:22:40.070Z,100102.51
2018-12-05T13:25:11.261Z,100097.72
2018-12-05T13:27:42.340Z,100091.41
2018-12-05T13:30:13.552Z,100088.13
2018-12-05T13:32:44.793Z,100087.08
2018-12-05T13:35:16.013Z,100081.53
2018-12-05T13:37:47.115Z,100080.00
2018-12-05T13:40:18.233Z,100071.66
2018-12-05T13:42:49.388Z,100066.23
2018-12-05T13:45:20.769Z,100067.04
2018-12-05T13:47:52.056Z,100069.72
2018-12-05T13:50:23.165Z,100060.53
2018-12-05T13:52:54.364Z,100064.37
2018-12-05T13:55:25.487Z,100062.83
2018-12-05T13:57:56.569Z,100064.15
2018-12-05T14:00:27.713Z,100069.89
2018-12-05T14:02:58.802Z,100071.25
2018-12-05T14:05:29.924Z,100070.91
2018-12-05T14:08:01.192Z,100071.97
2018-12-05T14:10:32.334Z,100068.05
2018-12-05T14:13:03.437Z,100069.59
2018-12-05T14:15:34.558Z,100061.64
2018-12-05T14:18:05.660Z,100058.85
2018-12-05T14:20:36.777Z,100052.45
2018-12-05T14:23:07.972Z,100048.51
2018-12-05T14:25:39.169Z,100046.27
2018-12-05T14:28:10.314Z,100043.00
2018-12-05T14:30:41.429Z,100038.87
2018-12-05T14:33:12.510Z,100029.89
2018-12-05T14:35:43.641Z,100032.29
2018-12-05T14:38:14.937Z,100033.84
2018-12-05T14:40:46.412Z,100029.23
2018-12-05T14:43:17.509Z,100019.89
2018-12-05T14:45:48.713Z,100019.52
2018-12-05T14:48:19.702Z,100021.05
2018-12-05T14:50:50.798Z,100019.18
2018-12-05T14:53:21.805Z,100009.02
2018-12-05T14:55:52.889Z,100006.13
2018-12-05T14:58:24.001Z,100005.69
2018-12-05T15:00:55.000Z,100000.33
2018-12-05T15:03:26.126Z,100007.82
2018-12-05T15:05:57.209Z,100002.66
2018-12-05T15:08:28.362Z,100006.00
2018-12-05T15:10:59.479Z,99996.13
2018-12-05T15:13:30.686Z,99991.80
2018-12-05T15:16:01.764Z,99993.32
2018-12-05T15:18:32.868Z,99988.61
2018-12-05T15:21:10.706Z,99989.48
2018-12-05T15:23:41.896Z,99992.44
2018-12-05T15:26:13.049Z,99987.28
2018-12-05T15:28:44.220Z,99987.42
2018-12-05T15:31:15.361Z,99988.94
2018-12-05T15:33:46.529Z,99985.73
2018-12-05T15:36:17.684Z,99985.77
2018-12-05T15:38:48.861Z,99984.94
2018-12-05T15:41:19.927Z,99981.84
2018-12-05T15:43:51.033Z,99980.53
2018-12-05T15:46:22.121Z,99978.47
2018-12-05T15:48:53.901Z,99980.03
2018-12-05T15:51:24.973Z,99977.58
2018-12-05T15:53:56.104Z,99988.11
2018-12-05T15:56:27.094Z,99988.98
2018-12-05T15:58:58.196Z,99987.30
2018-12-05T16:01:29.289Z,99977.62
2018-12-05T16:04:00.392Z,99970.78
2018-12-05T16:06:31.475Z,99963.28
2018-12-05T16:09:02.597Z,99959.16
2018-12-05T16:11:35.661Z,99957.52
2018-12-05T16:14:06.889Z,99956.66
2018-12-05T16:16:38.616Z,99956.16
2018-12-05T16:19:09.756Z,99956.58
2018-12-05T16:21:40.720Z,99951.51
2018-12-05T16:24:13.306Z,99950.28
2018-12-05T16:26:44.399Z,99956.86
2018-12-05T16:29:15.427Z,99949.84
2018-12-05T16:31:46.501Z,99944.74
2018-12-05T16:34:17.516Z,99941.49
2018-12-05T16:36:48.602Z,99931.59
2018-12-05T16:39:19.685Z,99931.58
2018-12-05T16:41:50.820Z,99924.00
2018-12-05T16:44:22.058Z,99922.66
2018-12-05T16:46:53.204Z,99920.72
2018-12-05T16:49:24.268Z,99918.50
2018-12-05T16:51:55.358Z,99915.55
2018-12-05T16:54:26.996Z,99914.72
2018-12-05T16:56:58.185Z,99918.80
2018-12-05T16:59:29.294Z,99922.53
2018-12-05T17:02:00.299Z,99919.89
2018-12-05T17:04:31.443Z,99914.26
2018-12-05T17:07:02.523Z,99906.03
2018-12-05T17:09:33.649Z,99902.44
2018-12-05T17:12:04.620Z,99899.90
2018-12-05T17:14:35.655Z,99890.56
2018-12-05T17:17:06.817Z,99882.11
2018-12-05T17:19:37.912Z,99876.77
2018-12-05T17:22:09.016Z,99863.61
2018-12-05T17:24:40.034Z,99855.64
2018-12-05T17:27:11.416Z,99854.52
2018-12-05T17:29:42.641Z,99857.70
2018-12-05T17:32:13.729Z,99851.17
2018-12-05T17:34:44.973Z,99850.34
2018-12-05T17:37:16.059Z,99849.70
2018-12-05T17:39:47.120Z,99839.28
2018-12-05T17:42:18.245Z,99827.57
2018-12-05T17:44:49.593Z,99833.48
2018-12-05T17:47:20.724Z,99834.64
2018-12-05T17:49:52.453Z,99830.81
2018-12-05T17:52:23.563Z,99826.66
2018-12-05T17:54:54.609Z,99825.03
2018-12-05T17:57:25.709Z,99825.13
2018-12-05T17:59:56.884Z,99822.08
2018-12-05T18:02:27.968Z,99822.78
2018-12-05T18:04:59.085Z,99819.28
2018-12-05T18:07:30.096Z,99821.09
2018-12-05T18:10:01.247Z,99818.81
2018-12-05T18:12:32.377Z,99825.83
2018-12-05T18:15:03.527Z,99828.76
2018-12-05T18:17:34.600Z,99838.09
2018-12-05T18:20:08.103Z,99835.30
2018-12-05T18:22:39.258Z,99840.95
2018-12-05T18:25:10.385Z,99829.48
2018-12-05T18:27:41.480Z,99829.01
2018-12-05T18:30:12.616Z,99828.84
2018-12-05T18:32:43.898Z,99824.31
2018-12-05T18:35:15.104Z,99815.16
2018-12-05T18:37:46.288Z,99813.66
2018-12-05T18:40:17.410Z,99808.88
2018-12-05T18:42:48.389Z,99805.38
2018-12-05T18:45:19.516Z,99804.65
2018-12-05T18:47:50.602Z,99798.75
2018-12-05T18:50:21.716Z,99797.95
2018-12-05T18:52:52.795Z,99787.22
2018-12-05T18:55:23.916Z,99780.05
2018-12-05T18:57:55.028Z,99781.28
2018-12-05T19:00:26.043Z,99772.70
2018-12-05T19:02:57.137Z,99759.10
2018-12-05T19:05:28.249Z,99743.77
2018-12-05T19:08:00.410Z,99737.07
2018-12-05T19:10:31.420Z,99756.03
2018-12-05T19:13:02.523Z,99754.36
2018-12-05T19:15:33.685Z,99756.83
2018-12-05T19:18:05.393Z,99734.20
2018-12-05T19:20:36.689Z,99747.70
2018-12-05T19:23:07.813Z,99738.09
2018-12-05T19:25:39.001Z,99732.38
2018-12-05T19:28:09.990Z,99732.91
2018-12-05T19:30:41.102Z,99725.74
2018-12-05T19:33:12.184Z,99728.47
2018-12-05T19:35:43.284Z,99727.88
2018-12-05T19:38:14.258Z,99720.16
2018-12-05T19:40:45.341Z,99722.41
2018-12-05T19:43:16.433Z,99718.73
2018-12-05T19:45:47.581Z,99717.60
2018-12-05T19:48:18.666Z,99717.28
2018-12-05T19:50:49.839Z,99715.72
2018-12-05T19:53:21.027Z,99714.34
2018-12-05T19:55:52.150Z,99711.55
2018-12-05T19:58:23.240Z,99709.95
2018-12-05T20:00:54.237Z,99716.47
2018-12-05T20:03:25.332Z,99717.66
2018-12-05T20:05:56.438Z,99710.41
2018-12-05T20:08:27.513Z,99707.62
2018-12-05T20:10:58.617Z,99692.27
2018-12-05T20:13:29.600Z,99682.67
2018-12-05T20:16:00.852Z,99698.85
2018-12-05T20:18:31.993Z,99703.73
2018-12-05T20:21:03.596Z,99705.06
2018-12-05T20:23:34.677Z,99702.52
2018-12-05T20:26:05.846Z,99693.22
2018-12-05T20:28:36.979Z,99684.59
2018-12-05T20:31:08.104Z,99689.75
2018-12-05T20:33:39.282Z,99680.69
2018-12-05T20:36:10.393Z,99680.91
2018-12-05T20:38:41.501Z,99674.53
2018-12-05T20:41:12.751Z,99673.52
2018-12-05T20:43:43.836Z,99670.76
2018-12-05T20:46:15.125Z,99670.08
2018-12-05T20:48:46.215Z,99666.16
2018-12-05T20:51:17.341Z,99657.96
2018-12-05T20:53:48.424Z,99659.92
2018-12-05T20:56:19.534Z,99664.88
2018-12-05T20:58:50.616Z,99669.72
2018-12-05T21:01:21.872Z,99668.93
2018-12-05T21:03:53.553Z,99669.55
2018-12-05T21:06:24.660Z,99657.30
2018-12-05T21:08:55.753Z,99655.70
2018-12-05T21:11:27.122Z,99652.57
2018-12-05T21:13:58.201Z,99646.25
2018-12-05T21:16:29.345Z,99648.49
2018-12-05T21:19:00.476Z,99648.55
2018-12-05T21:21:31.597Z,99658.77
2018-12-05T21:24:02.971Z,99646.74
2018-12-05T21:26:34.092Z,99657.44
2018-12-05T21:29:05.085Z,99652.56
2018-12-05T21:31:36.337Z,99639.16
2018-12-05T21:34:07.432Z,99640.45
2018-12-05T21:36:38.453Z,99642.42
2018-12-05T21:39:10.889Z,99651.20
2018-12-05T21:41:41.908Z,99651.20
2018-12-05T21:44:13.041Z,99656.87
2018-12-05T21:46:44.943Z,99656.56
2018-12-05T21:49:16.132Z,99660.07
2018-12-05T21:51:47.268Z,99660.00
2018-12-05T21:54:18.364Z,99652.14
2018-12-05T21:56:49.494Z,99645.60
2018-12-05T21:59:20.586Z,99642.66
2018-12-05T22:01:51.721Z,99637.94
2018-12-05T22:04:22.710Z,99639.21
2018-12-05T22:06:53.817Z,99634.38
2018-12-05T22:09:24.912Z,99635.37
2018-12-05T22:11:56.060Z,99635.92
2018-12-05T22:14:27.144Z,99638.73
2018-12-05T22:16:58.365Z,99637.52
2018-12-05T22:19:29.454Z,99636.24
2018-12-05T22:22:00.460Z,99637.23
2018-12-05T22:24:31.557Z,99638.98
2018-12-05T22:27:02.687Z,99632.77
2018-12-05T22:29:33.775Z,99628.03
2018-12-05T22:32:04.988Z,99624.84
2018-12-05T22:34:36.094Z,99623.41
2018-12-05T22:37:07.212Z,99623.84
2018-12-05T22:39:38.308Z,99623.20
2018-12-05T22:42:09.488Z,99623.81
2018-12-05T22:44:40.475Z,99622.80
2018-12-05T22:47:11.613Z,99621.47
2018-12-05T22:49:42.745Z,99614.52
2018-12-05T22:52:13.867Z,99613.50
2018-12-05T22:54:45.108Z,99612.56
2018-12-05T22:57:16.874Z,99615.91
2018-12-05T22:59:47.973Z,99614.16
2018-12-05T23:02:19.114Z,99613.70
2018-12-05T23:04:52.163Z,99611.95
2018-12-05T23:07:23.288Z,99615.70
2018-12-05T23:09:54.410Z,99606.70
2018-12-05T23:12:25.537Z,99601.12
2018-12-05T23:15:01.745Z,99601.93
2018-12-05T23:17:37.969Z,99603.75
2018-12-05T23:20:14.361Z,99599.11
2018-12-05T23:22:50.648Z,99604.70
2018-12-05T23:25:21.730Z,99602.39
2018-12-05T23:27:52.849Z,99600.63
2018-12-05T23:30:23.945Z,99594.75
2018-12-05T23:32:55.050Z,99598.58
2018-12-05T23:35:26.149Z,99589.82
2018-12-05T23:37:57.264Z,99588.02
2018-12-05T23:40:28.355Z,99581.73
2018-12-05T23:42:59.664Z,99576.38
2018-12-05T23:45:30.751Z,99576.63
2018-12-05T23:48:01.747Z,99572.16
2018-12-05T23:50:32.844Z,99572.75
2018-12-05T23:53:03.952Z,99562.50
2018-12-05T23:55:35.034Z,99555.86
2018-12-05T23:58:06.142Z,99553.22
